Flight Track Log - Related Links

Times and Time Zones

All times are in EDT time to prevent confusion due to time zone crossing. See the PDT4150 flight status page for this flight to view local times or setup timezone preferences in your user account.

Time Position Orientation Groundspeed Altitude Reporting Facility
EDT Latitude Longitude Course Direction KTS MPH feet Rate Location/Type
Thu 09:17:36 AM 42.9167 -78.7500 216° Southwest 108 124 2,600  Level Buffalo TRACON
Thu 09:18:36 AM 42.8833 -78.7667 200° South 153 176 3,800 1,286 Climbing Buffalo TRACON
Thu 09:19:00 AM 42.7571 -78.7000 180° South  Level FlightAware Approximate
Thu 09:19:14 AM 42.8586 -78.7569 164° South 158 182 4,700  Level Cleveland Center
Thu 09:20:00 AM 42.6971 -78.6972 174° South  Level FlightAware Approximate
Thu 09:20:16 AM 42.8117 -78.7475 172° South 160 184 6,100  Level Cleveland Center
Thu 09:21:00 AM 42.6373 -78.6887 174° South  Level FlightAware Approximate
Thu 09:21:18 AM 42.7617 -78.7342 169° South 173 199 7,400  Level Cleveland Center
Thu 09:22:00 AM 42.5779 -78.6778 170° South  Level FlightAware Approximate
Thu 09:22:20 AM 42.7153 -78.7244 171° South 173 199 8,700  Level Cleveland Center
Thu 09:23:22 AM 42.6608 -78.7153 173° South 178 205 10,200 1,317 Climbing Cleveland Center
Thu 09:24:23 AM 42.6131 -78.7103 176° South 178 205 11,400 1,220 Climbing Cleveland Center
Thu 09:25:25 AM 42.5642 -78.6894 163° South 203 234 12,700 1,161 Climbing Cleveland Center
Thu 09:26:27 AM 42.5197 -78.6389 140° Southeast 210 242 13,800 1,065 Climbing Cleveland Center
Thu 09:27:29 AM 42.4717 -78.5878 142° Southeast 220 253 14,900 629 Climbing Cleveland Center
Thu 09:28:31 AM 42.4194 -78.5328 142° Southeast 233 268 15,100 97 Climbing Cleveland Center
Thu 09:29:33 AM 42.3481 -78.4564 142° Southeast 266 306 15,100  Level Cleveland Center
Thu 09:30:35 AM 42.2878 -78.3919 142° Southeast 275 316 15,100  Level Cleveland Center
Thu 09:31:37 AM 42.2256 -78.3272 142° Southeast 278 320 15,100  Level Cleveland Center
Thu 09:32:39 AM 42.1592 -78.2572 142° Southeast 281 323 15,100  Level Cleveland Center
Thu 09:33:41 AM 42.0975 -78.1922 142° Southeast 281 323 15,100  Level Cleveland Center
Thu 09:34:43 AM 42.0283 -78.1186 142° Southeast 281 323 15,100  Level Cleveland Center
Thu 09:35:45 AM 41.9681 -78.0500 140° Southeast 282 325 15,100  Level Cleveland Center
Thu 09:36:46 AM 41.9067 -77.9842 141° Southeast 282 325 15,100 -49 Level Cleveland Center
Thu 09:37:48 AM 41.8394 -77.9131 142° Southeast 283 326 15,000 54 Descending Cleveland Center
Thu 09:38:38 AM 41.7947 -77.8683 143° Southeast 295 339 15,200 109 Climbing New York Center
Thu 09:39:38 AM 41.7297 -77.8058 144° Southeast 295 339 15,200 -100 Level New York Center
Thu 09:40:38 AM 41.6586 -77.7372 144° Southeast 295 339 15,000 -100 Descending New York Center
Thu 09:41:38 AM 41.5978 -77.6728 142° Southeast 295 339 15,000  Level New York Center
Thu 09:42:38 AM 41.5350 -77.6081 142° Southeast 295 339 15,000  Level New York Center
Thu 09:43:38 AM 41.4742 -77.5408 140° Southeast 295 339 15,000  Level New York Center
Thu 09:44:38 AM 41.4133 -77.4767 142° Southeast 290 334 15,000  Level New York Center
Thu 09:45:38 AM 41.3544 -77.4100 140° Southeast 285 328 15,000  Level New York Center
Thu 09:46:38 AM 41.2972 -77.3519 143° Southeast 285 328 15,000  Level New York Center
Thu 09:47:38 AM 41.2342 -77.2878 143° Southeast 285 328 15,000 -100 Level New York Center
Thu 09:48:38 AM 41.1708 -77.2267 144° Southeast 280 322 14,800 -300 Descending New York Center
Thu 09:49:38 AM 41.1056 -77.1625 143° Southeast 280 322 14,400 -400 Descending New York Center
Thu 09:50:38 AM 41.0383 -77.0956 143° Southeast 294 338 14,000 -397 Descending New York Center
Thu 09:51:39 AM 40.9753 -77.0264 140° Southeast 294 338 13,600 -400 Descending New York Center
Thu 09:52:38 AM 40.9061 -76.9542 142° Southeast 294 338 13,200 -403 Descending New York Center
Thu 09:53:38 AM 40.8428 -76.8881 142° Southeast 294 338 12,800 -400 Descending New York Center
Thu 09:54:38 AM 40.7794 -76.8278 144° Southeast 289 333 12,400 -400 Descending New York Center
Thu 09:55:38 AM 40.7158 -76.7644 143° Southeast 289 333 12,000 -350 Descending New York Center
Thu 09:56:38 AM 40.6522 -76.7042 144° Southeast 289 333 11,700 -350 Descending New York Center
Thu 09:57:38 AM 40.5906 -76.6442 144° Southeast 283 326 11,300 -350 Descending New York Center
Thu 09:58:38 AM 40.5336 -76.5739 137° Southeast 283 326 11,000 -200 Descending New York Center
Thu 09:59:38 AM 40.4917 -76.4911 124° Southeast 272 313 10,900 -50 Descending New York Center
Thu 10:00:38 AM 40.4536 -76.4197 125° Southeast 272 313 10,900  Level New York Center
Thu 10:01:38 AM 40.4094 -76.3397 126° Southeast 272 313 10,900  Level New York Center
Thu 10:02:38 AM 40.3611 -76.2569 127° Southeast 272 313 10,900 -400 Level New York Center
Thu 10:03:38 AM 40.3206 -76.1883 128° Southeast 264 304 10,100 -950 Descending New York Center
Thu 10:04:38 AM 40.2683 -76.0972 127° Southeast 275 316 9,000 -1,000 Descending New York Center
Thu 10:05:38 AM 40.2261 -76.0178 125° Southeast 282 325 8,100 -1,000 Descending New York Center
Thu 10:06:38 AM 40.1783 -75.9192 122° Southeast 287 330 7,000 -1,000 Descending New York Center
Thu 10:07:38 AM 40.1339 -75.8397 126° Southeast 287 330 6,100 -500 Descending New York Center
Thu 10:08:38 AM 40.0933 -75.7636 125° Southeast 277 319 6,000 -450 Descending New York Center
Thu 10:09:38 AM 40.0847 -75.6733 97° East 245 282 5,200 -750 Descending New York Center
Thu 10:10:38 AM 40.0842 -75.5811 90° East 250 288 4,500 -600 Descending New York Center
Thu 10:11:38 AM 40.0881 -75.4892 87° East 256 295 4,000 -250 Descending New York Center
Thu 10:12:38 AM 40.1239 -75.4236 54° Northeast 215 247 4,000  Level New York Center
Thu 10:13:38 AM 40.1431 -75.3572 69° East 202 232 4,000  Level New York Center
Thu 10:14:38 AM 40.1336 -75.2831 99° East 202 232 4,000  Level New York Center
Thu 10:16:01 AM 40.0833 -75.2000 128° Southeast 210 242 4,000  Level Philadelphia TRACON
Thu 10:17:01 AM 40.0333 -75.1667 153° Southeast 211 243 4,000  Level Philadelphia TRACON
Thu 10:18:01 AM 39.9667 -75.1500 169° South 209 241 4,000  Level Philadelphia TRACON
Thu 10:19:01 AM 39.9167 -75.1167 153° Southeast 211 243 4,000  Level Philadelphia TRACON
Thu 10:20:01 AM 39.8667 -75.1000 166° South 208 239 4,000 -250 Level Philadelphia TRACON
Thu 10:21:01 AM 39.8000 -75.1000 180° South 205 236 3,500 -1,000 Descending Philadelphia TRACON
Thu 10:21:55 AM 39.7667 -75.1167 201° Southwest 191 220 2,100 -1,000 Descending Philadelphia TRACON
Thu 10:22:55 AM 39.7833 -75.1667 293° West 174 200 1,600 -400 Descending Philadelphia TRACON
Thu 10:23:55 AM 39.8167 -75.2000 322° Northwest 149 171 1,300 -500 Descending Philadelphia TRACON
Thu 10:24:55 AM 39.8500 -75.2167 339° North 117 135 600 -700 Descending Philadelphia TRACON

Login

Don't have an account? Register now (free) for customized features, flight alerts, and more!